createdAt,value
2022-11-15T00:01:21.190Z,30.97
2022-11-15T00:04:24.248Z,32.27
2022-11-15T00:07:53.566Z,30.87
2022-11-15T00:10:58.365Z,30.20
2022-11-15T00:14:03.427Z,30.70
2022-11-15T00:17:06.428Z,30.63
2022-11-15T00:20:10.768Z,30.87
2022-11-15T00:23:13.877Z,30.27
2022-11-15T00:26:19.278Z,30.97
2022-11-15T00:29:23.840Z,32.47
2022-11-15T00:32:26.838Z,29.97
2022-11-15T00:35:29.958Z,32.07
2022-11-15T00:38:34.602Z,31.40
2022-11-15T00:41:39.117Z,32.13
2022-11-15T00:44:42.326Z,31.73
2022-11-15T00:47:46.582Z,31.60
2022-11-15T00:50:50.150Z,31.43
2022-11-15T00:53:53.209Z,32.00
2022-11-15T00:56:57.682Z,33.27
2022-11-15T01:00:00.707Z,32.17
2022-11-15T01:03:03.782Z,30.97
2022-11-15T01:06:07.806Z,32.67
2022-11-15T01:09:10.877Z,31.20
2022-11-15T01:12:15.329Z,33.00
2022-11-15T01:15:18.498Z,33.23
2022-11-15T01:18:21.571Z,32.13
2022-11-15T01:21:24.891Z,32.00
2022-11-15T01:24:27.992Z,32.87
2022-11-15T01:27:32.726Z,32.20
2022-11-15T01:30:36.035Z,33.67
2022-11-15T01:33:39.236Z,32.93
2022-11-15T01:40:03.039Z,33.97
2022-11-15T01:43:22.980Z,32.83
2022-11-15T01:46:32.752Z,33.77
2022-11-15T01:49:37.674Z,32.23
2022-11-15T01:52:42.576Z,32.00
2022-11-15T01:55:46.358Z,31.40
2022-11-15T01:58:52.557Z,31.53
2022-11-15T02:01:56.689Z,32.03
2022-11-15T02:05:00.275Z,30.77
2022-11-15T02:08:03.876Z,31.97
2022-11-15T02:11:09.642Z,32.10
2022-11-15T02:14:15.935Z,32.90
2022-11-15T02:17:33.836Z,31.47
2022-11-15T02:20:54.942Z,32.07
2022-11-15T02:24:21.197Z,31.87
2022-11-15T02:27:48.901Z,33.37
2022-11-15T02:30:59.629Z,30.53
2022-11-15T02:34:10.764Z,30.60
2022-11-15T02:37:18.648Z,30.63
2022-11-15T02:40:29.995Z,30.43
2022-11-15T02:43:57.394Z,32.73
2022-11-15T02:47:15.007Z,30.97
2022-11-15T02:50:20.820Z,31.10
2022-11-15T02:53:27.291Z,30.97
2022-11-15T02:56:30.617Z,30.53
2022-11-15T03:00:04.580Z,30.57
2022-11-15T03:03:21.637Z,30.23
2022-11-15T03:06:33.484Z,30.40
2022-11-15T03:09:42.275Z,29.00
2022-11-15T03:12:52.545Z,29.63
2022-11-15T03:16:05.069Z,31.00
2022-11-15T03:19:16.437Z,29.83
2022-11-15T03:22:23.189Z,29.90
2022-11-15T03:25:28.042Z,30.67
2022-11-15T03:28:36.249Z,30.20
2022-11-15T03:31:51.832Z,31.27
2022-11-15T03:35:01.265Z,30.00
2022-11-15T03:38:13.489Z,30.00
2022-11-15T03:41:24.493Z,29.87
2022-11-15T03:44:39.047Z,29.30
2022-11-15T03:47:45.819Z,28.80
2022-11-15T03:50:51.115Z,29.10
2022-11-15T03:53:54.320Z,29.53
2022-11-15T03:56:57.841Z,28.80
2022-11-15T04:00:00.880Z,29.43
2022-11-15T04:03:04.169Z,27.40
2022-11-15T04:06:08.918Z,26.77
2022-11-15T04:09:12.093Z,28.30
2022-11-15T04:12:31.756Z,27.90
2022-11-15T04:15:35.053Z,27.80
2022-11-15T04:18:38.214Z,26.80
2022-11-15T04:22:00.740Z,26.50
2022-11-15T04:25:06.162Z,24.83
2022-11-15T04:28:09.614Z,25.57
2022-11-15T04:31:12.638Z,24.67
2022-11-15T04:34:15.650Z,25.10
2022-11-15T04:37:20.197Z,23.10
2022-11-15T04:40:23.286Z,22.40
2022-11-15T04:43:26.345Z,22.37
2022-11-15T04:46:30.971Z,22.10
2022-11-15T04:49:34.144Z,21.90
2022-11-15T04:52:38.647Z,24.47
2022-11-15T04:55:41.694Z,21.40
2022-11-15T04:58:45.164Z,19.73
2022-11-15T05:01:48.353Z,22.60
2022-11-15T05:04:50.393Z,21.40
2022-11-15T05:07:54.967Z,20.47
2022-11-15T05:10:58.307Z,20.77
2022-11-15T05:14:01.389Z,22.37
2022-11-15T05:17:04.855Z,20.97
2022-11-15T05:20:09.281Z,21.83
2022-11-15T05:23:14.312Z,21.20
2022-11-15T05:26:19.131Z,21.27
2022-11-15T05:29:22.251Z,23.07
2022-11-15T05:32:27.409Z,22.20
2022-11-15T05:35:34.617Z,20.53
2022-11-15T05:38:39.883Z,20.80
2022-11-15T05:41:47.410Z,20.40
2022-11-15T05:44:51.516Z,20.57
2022-11-15T05:47:57.506Z,19.97
2022-11-15T05:51:01.539Z,20.10
2022-11-15T05:54:06.987Z,19.50
2022-11-15T05:57:10.149Z,21.33
2022-11-15T06:00:14.513Z,20.97
2022-11-15T06:03:17.807Z,19.83
2022-11-15T06:06:20.943Z,20.27
2022-11-15T06:09:25.731Z,20.03
2022-11-15T06:12:29.035Z,19.20
2022-11-15T06:15:32.326Z,19.60
2022-11-15T06:18:36.153Z,18.47
2022-11-15T06:21:39.505Z,19.23
2022-11-15T06:24:45.019Z,18.57
2022-11-15T06:27:53.793Z,19.53
2022-11-15T06:30:56.944Z,19.07
2022-11-15T06:34:00.210Z,18.17
2022-11-15T06:37:03.232Z,18.10
2022-11-15T06:40:10.012Z,17.83
2022-11-15T06:43:13.125Z,17.90
2022-11-15T06:46:16.239Z,18.30
2022-11-15T06:49:19.262Z,16.83
2022-11-15T06:52:22.820Z,17.27
2022-11-15T06:55:27.216Z,16.60
2022-11-15T06:58:30.929Z,17.07
2022-11-15T07:01:34.096Z,17.37
2022-11-15T07:04:38.564Z,17.40
2022-11-15T07:07:41.916Z,18.13
2022-11-15T07:10:46.476Z,16.37
2022-11-15T07:13:49.906Z,17.40
2022-11-15T07:16:53.366Z,17.10
2022-11-15T07:19:56.527Z,15.27
2022-11-15T07:23:02.329Z,16.47
2022-11-15T07:26:07.029Z,16.53
2022-11-15T07:29:10.655Z,17.23
2022-11-15T07:32:13.749Z,15.43
2022-11-15T07:35:17.268Z,16.20
2022-11-15T07:38:21.516Z,15.23
2022-11-15T07:41:25.959Z,15.57
2022-11-15T07:44:28.992Z,15.17
2022-11-15T07:47:32.014Z,15.10
2022-11-15T07:50:35.226Z,15.50
2022-11-15T07:53:38.344Z,15.40
2022-11-15T07:56:43.028Z,16.17
2022-11-15T07:59:46.336Z,15.27
2022-11-15T08:02:49.620Z,14.93
2022-11-15T08:05:53.612Z,15.53
2022-11-15T08:08:56.985Z,15.03
2022-11-15T08:12:01.444Z,15.53
2022-11-15T08:15:05.084Z,13.97
2022-11-15T08:18:12.645Z,14.10
2022-11-15T08:21:19.522Z,14.93
2022-11-15T08:24:22.786Z,14.73
2022-11-15T08:27:27.260Z,14.20
2022-11-15T08:30:31.095Z,14.77
2022-11-15T08:33:35.313Z,15.03
2022-11-15T08:36:45.686Z,14.67
2022-11-15T08:39:49.243Z,13.47
2022-11-15T08:42:53.894Z,14.83
2022-11-15T08:45:58.116Z,14.97
2022-11-15T08:49:01.170Z,14.97
2022-11-15T08:52:04.353Z,14.57
2022-11-15T08:55:08.462Z,14.63
2022-11-15T08:58:13.037Z,15.43
2022-11-15T09:01:19.133Z,13.90
2022-11-15T09:04:22.457Z,15.40
2022-11-15T09:07:25.948Z,14.27
2022-11-15T09:10:29.370Z,13.93
2022-11-15T09:13:34.113Z,14.40
2022-11-15T09:16:37.147Z,15.17
2022-11-15T09:19:40.573Z,15.07
2022-11-15T09:22:44.102Z,14.93
2022-11-15T09:25:47.294Z,15.07
2022-11-15T09:28:51.878Z,14.10
2022-11-15T09:31:55.350Z,15.37
2022-11-15T09:34:58.483Z,14.77
2022-11-15T09:38:01.835Z,14.70
2022-11-15T09:41:35.098Z,14.73
2022-11-15T09:44:50.801Z,14.80
2022-11-15T09:48:16.372Z,14.93
2022-11-15T09:51:27.564Z,14.07
2022-11-15T09:58:01.480Z,14.10
2022-11-15T10:01:11.166Z,14.40
2022-11-15T10:04:15.663Z,14.20
2022-11-15T10:07:25.919Z,13.47
2022-11-15T10:10:37.072Z,14.50
2022-11-15T10:13:44.806Z,14.63
2022-11-15T10:17:23.962Z,14.17
2022-11-15T10:20:29.141Z,14.40
2022-11-15T10:23:34.682Z,15.07
2022-11-15T10:26:37.800Z,13.87
2022-11-15T10:29:46.335Z,16.17
2022-11-15T10:32:51.549Z,13.63
2022-11-15T10:36:26.667Z,15.50
2022-11-15T10:39:30.029Z,15.00
2022-11-15T10:42:33.201Z,14.90
2022-11-15T10:45:36.505Z,14.03
2022-11-15T10:48:41.524Z,14.23
2022-11-15T10:51:47.015Z,14.50
2022-11-15T10:54:53.452Z,14.70
2022-11-15T10:57:59.374Z,14.60
2022-11-15T11:01:13.229Z,14.60
2022-11-15T11:04:17.818Z,14.80
2022-11-15T11:07:24.793Z,14.50
2022-11-15T11:13:51.381Z,14.90
2022-11-15T11:16:57.892Z,14.50
2022-11-15T11:20:28.481Z,15.20
2022-11-15T11:23:51.968Z,14.67
2022-11-15T11:27:10.326Z,14.70
2022-11-15T11:30:19.790Z,14.57
2022-11-15T11:33:31.707Z,15.23
2022-11-15T11:36:47.053Z,14.67
2022-11-15T11:40:09.145Z,13.60
2022-11-15T11:43:24.386Z,15.67
2022-11-15T11:46:47.451Z,15.07
2022-11-15T11:49:53.716Z,15.13
2022-11-15T11:53:03.901Z,14.17
2022-11-15T11:56:24.183Z,14.20
2022-11-15T11:59:36.039Z,15.00
2022-11-15T12:02:43.626Z,14.30
2022-11-15T12:05:50.959Z,13.77
2022-11-15T12:09:03.215Z,14.23
2022-11-15T12:12:13.958Z,14.60
2022-11-15T12:15:23.872Z,14.13
2022-11-15T12:18:27.211Z,13.80
2022-11-15T12:21:39.896Z,13.57
2022-11-15T12:24:48.049Z,13.90
2022-11-15T12:27:57.880Z,14.90
2022-11-15T12:31:05.761Z,16.17
2022-11-15T12:34:31.394Z,14.20
2022-11-15T12:37:58.743Z,13.87
2022-11-15T12:41:18.121Z,13.00
2022-11-15T12:44:53.632Z,15.17
2022-11-15T12:48:14.063Z,13.50
2022-11-15T12:51:17.214Z,13.70
2022-11-15T12:54:57.533Z,15.20
2022-11-15T12:58:43.391Z,13.60
2022-11-15T13:02:01.701Z,13.33
2022-11-15T13:05:55.217Z,14.67
2022-11-15T13:08:58.291Z,14.63
2022-11-15T13:12:03.223Z,14.50
2022-11-15T13:15:42.755Z,14.87
2022-11-15T13:18:56.663Z,13.70
2022-11-15T13:22:16.922Z,14.13
2022-11-15T13:25:27.861Z,14.10
2022-11-15T13:28:35.014Z,13.93
2022-11-15T13:31:44.426Z,13.43
2022-11-15T13:34:51.927Z,14.20
2022-11-15T13:37:57.546Z,14.40
2022-11-15T13:41:02.105Z,13.80
2022-11-15T13:44:06.589Z,13.87
2022-11-15T13:47:16.871Z,13.70
2022-11-15T13:50:23.457Z,15.30
2022-11-15T13:53:27.052Z,15.00
2022-11-15T13:56:31.718Z,14.77
2022-11-15T13:59:38.083Z,14.63
2022-11-15T14:02:42.664Z,14.43
2022-11-15T14:06:07.478Z,13.77
2022-11-15T14:09:34.095Z,14.83
2022-11-15T14:12:38.170Z,15.70
2022-11-15T14:15:41.989Z,13.80
2022-11-15T14:18:48.674Z,13.87
2022-11-15T14:22:16.897Z,13.80
2022-11-15T14:25:22.538Z,14.43
2022-11-15T14:28:37.565Z,14.03
2022-11-15T14:31:43.969Z,14.53
2022-11-15T14:34:48.999Z,14.63
2022-11-15T14:37:52.794Z,14.33
2022-11-15T14:40:57.779Z,14.80
2022-11-15T14:44:00.922Z,14.47
2022-11-15T14:47:04.254Z,14.80
2022-11-15T14:50:12.683Z,14.33
2022-11-15T14:53:18.626Z,15.00
2022-11-15T14:56:21.698Z,15.13
2022-11-15T14:59:24.829Z,14.60
2022-11-15T15:02:29.641Z,13.80
2022-11-15T15:05:36.797Z,14.50
2022-11-15T15:08:39.853Z,14.83
2022-11-15T15:11:42.876Z,14.27
2022-11-15T15:14:46.560Z,14.30
2022-11-15T15:17:49.849Z,14.50
2022-11-15T15:20:58.571Z,14.20
2022-11-15T15:24:01.656Z,15.13
2022-11-15T15:27:05.092Z,14.60
2022-11-15T15:30:09.433Z,14.57
2022-11-15T15:33:12.603Z,14.80
2022-11-15T15:36:20.161Z,14.67
2022-11-15T15:39:23.405Z,15.80
2022-11-15T15:42:26.490Z,14.40
2022-11-15T15:45:30.741Z,15.70
2022-11-15T15:48:34.975Z,15.73
2022-11-15T15:51:39.754Z,15.80
2022-11-15T15:54:43.467Z,16.47
2022-11-15T15:57:47.050Z,16.13
2022-11-15T16:00:50.419Z,15.43
2022-11-15T16:03:53.554Z,15.43
2022-11-15T16:07:02.007Z,35.20
2022-11-15T16:10:16.629Z,32.63
2022-11-15T16:13:19.735Z,36.17
2022-11-15T16:16:24.114Z,39.80
2022-11-15T16:19:27.248Z,38.00
2022-11-15T16:22:34.369Z,39.70
2022-11-15T16:25:41.374Z,38.93
2022-11-15T16:28:44.995Z,39.47
2022-11-15T16:31:48.147Z,36.13
2022-11-15T16:34:51.231Z,36.93
2022-11-15T16:37:55.704Z,36.97
2022-11-15T16:40:58.799Z,43.60
2022-11-15T16:44:01.979Z,45.40
2022-11-15T16:47:05.077Z,49.80
2022-11-15T16:50:09.224Z,48.70
2022-11-15T16:53:13.753Z,47.53
2022-11-15T16:56:21.567Z,46.47
2022-11-15T16:59:24.681Z,44.43
2022-11-15T17:02:27.738Z,43.23
2022-11-15T17:05:30.813Z,43.00
2022-11-15T17:08:35.772Z,41.63
2022-11-15T17:11:39.002Z,43.27
2022-11-15T17:14:42.086Z,41.73
2022-11-15T17:17:46.420Z,40.37
2022-11-15T17:20:49.538Z,41.37
2022-11-15T17:23:54.304Z,41.00
2022-11-15T17:26:57.391Z,40.13
2022-11-15T17:30:00.465Z,41.17
2022-11-15T17:33:03.622Z,41.30
2022-11-15T17:36:10.206Z,38.90
2022-11-15T17:39:14.683Z,39.60
2022-11-15T17:42:18.064Z,40.17
2022-11-15T17:45:21.162Z,40.20
2022-11-15T17:48:24.195Z,40.33
2022-11-15T17:51:27.631Z,40.60
2022-11-15T17:54:32.288Z,42.00
2022-11-15T17:57:38.329Z,39.40
2022-11-15T18:00:41.438Z,40.70
2022-11-15T18:03:44.529Z,40.67
2022-11-15T18:06:47.913Z,41.80
2022-11-15T18:09:53.059Z,42.07
2022-11-15T18:12:56.133Z,42.00
2022-11-15T18:16:02.670Z,41.43
2022-11-15T18:19:09.146Z,41.57
2022-11-15T18:22:12.310Z,42.30
2022-11-15T18:25:16.821Z,40.80
2022-11-15T18:28:20.071Z,43.27
2022-11-15T18:31:24.992Z,43.47
2022-11-15T18:34:32.220Z,45.77
2022-11-15T18:37:35.738Z,43.40
2022-11-15T18:40:40.161Z,45.90
2022-11-15T18:43:43.460Z,44.83
2022-11-15T18:46:46.566Z,45.27
2022-11-15T18:49:49.924Z,46.00
2022-11-15T18:52:52.956Z,45.73
2022-11-15T18:56:02.104Z,44.00
2022-11-15T18:59:06.265Z,46.37
2022-11-15T19:02:12.352Z,46.17
2022-11-15T19:05:18.596Z,43.10
2022-11-15T19:08:21.889Z,44.07
2022-11-15T19:11:28.923Z,43.50
2022-11-15T19:14:32.127Z,43.43
2022-11-15T19:17:35.250Z,47.63
2022-11-15T19:20:38.366Z,45.87
2022-11-15T19:23:42.901Z,45.73
2022-11-15T19:26:47.553Z,45.03
2022-11-15T19:29:50.571Z,49.00
2022-11-15T19:32:53.686Z,49.20
2022-11-15T19:36:01.763Z,46.07
2022-11-15T19:39:08.538Z,47.70
2022-11-15T19:42:13.026Z,47.40
2022-11-15T19:45:16.136Z,47.03
2022-11-15T19:48:19.264Z,46.17
2022-11-15T19:51:24.169Z,47.13
2022-11-15T19:54:27.814Z,45.00
2022-11-15T19:57:33.042Z,47.70
2022-11-15T20:00:36.306Z,45.80
2022-11-15T20:03:41.224Z,48.80
2022-11-15T20:06:44.932Z,47.03
2022-11-15T20:09:48.310Z,45.30
2022-11-15T20:12:53.095Z,46.30
2022-11-15T20:15:56.739Z,46.80
2022-11-15T20:19:00.044Z,47.27
2022-11-15T20:22:03.133Z,45.27
2022-11-15T20:25:06.827Z,46.30
2022-11-15T20:28:13.408Z,45.13
2022-11-15T20:31:17.345Z,44.03
2022-11-15T20:34:20.594Z,45.83
2022-11-15T20:37:23.645Z,45.87
2022-11-15T20:40:27.104Z,44.10
2022-11-15T20:43:31.707Z,44.50
2022-11-15T20:46:34.782Z,43.20
2022-11-15T20:49:37.852Z,42.33
2022-11-15T20:52:40.939Z,43.83
2022-11-15T20:55:45.250Z,41.97
2022-11-15T20:58:51.324Z,42.97
2022-11-15T21:01:54.559Z,41.77
2022-11-15T21:04:57.739Z,42.67
2022-11-15T21:08:00.801Z,45.53
2022-11-15T21:11:23.678Z,45.20
2022-11-15T21:14:28.348Z,42.23
2022-11-15T21:17:31.385Z,44.83
2022-11-15T21:20:34.632Z,43.37
2022-11-15T21:23:38.185Z,43.30
2022-11-15T21:26:41.540Z,42.67
2022-11-15T21:29:46.462Z,43.27
2022-11-15T21:32:49.771Z,44.17
2022-11-15T21:35:52.886Z,42.53
2022-11-15T21:38:55.961Z,44.20
2022-11-15T21:41:59.083Z,44.13
2022-11-15T21:45:03.893Z,43.17
2022-11-15T21:48:08.269Z,42.53
2022-11-15T21:51:12.814Z,44.50
2022-11-15T21:54:16.116Z,45.20
2022-11-15T21:57:21.318Z,43.33
2022-11-15T22:00:43.354Z,45.20
2022-11-15T22:03:47.014Z,44.03
2022-11-15T22:06:50.173Z,45.00
2022-11-15T22:09:53.230Z,43.53
2022-11-15T22:12:56.469Z,44.23
2022-11-15T22:16:00.897Z,45.10
2022-11-15T22:19:04.176Z,42.90
2022-11-15T22:22:07.343Z,44.23
2022-11-15T22:25:10.703Z,44.87
2022-11-15T22:28:13.851Z,42.40
2022-11-15T22:31:18.437Z,43.33
2022-11-15T22:34:21.561Z,45.33
2022-11-15T22:37:24.987Z,42.10
2022-11-15T22:40:28.205Z,43.03
2022-11-15T22:43:31.350Z,43.90
2022-11-15T22:46:35.956Z,43.40
2022-11-15T22:49:39.071Z,42.23
2022-11-15T22:52:42.427Z,43.07
2022-11-15T22:55:45.686Z,43.93
2022-11-15T22:58:48.789Z,41.53
2022-11-15T23:01:54.150Z,43.33
2022-11-15T23:04:57.321Z,43.27
2022-11-15T23:08:00.454Z,41.57
2022-11-15T23:11:22.238Z,42.87
2022-11-15T23:14:25.494Z,41.33
2022-11-15T23:17:33.985Z,44.07
2022-11-15T23:20:43.465Z,42.00
2022-11-15T23:23:46.085Z,43.70
2022-11-15T23:26:51.095Z,42.70
2022-11-15T23:30:11.590Z,41.53
2022-11-15T23:33:34.166Z,40.83
2022-11-15T23:36:37.265Z,40.47
2022-11-15T23:39:40.535Z,42.27
2022-11-15T23:42:43.733Z,41.07
2022-11-15T23:45:46.873Z,41.00
2022-11-15T23:48:51.420Z,42.40
2022-11-15T23:51:54.747Z,41.07
2022-11-15T23:54:57.842Z,40.60
2022-11-15T23:58:00.942Z,41.60
